Latest Coastal Weather Observations for Low Head

IDT60701

Issued at 1:11 pm EDT Monday 8 February 2016 (issued every 10 minutes, with the page automatically refreshed every 10 minutes)

About coastal observations | Map of coastal stations | Coastal observations for TAS | Marine services | Other Formats
Station Details ID: 091293 Name: LOW HEAD Lat: -41.05 Lon: 146.79 Height: 3.0 m
Data from the previous 72 hours. | See also: Recent months at Low Head
Date/Time
EDT
Temp

°C
Wind Pressure Rain
since 9am
mm
Weather Cloud Vis
km
Sea
Height
m
Swell
Dir
 
Speed
knots
Gust
knots
hPa Trend Height
m
Period
s
Dir
08/01:00pm 24.2 NW 12 14 1017.8 - 0.0 - - - - - - -
08/12:30pm 23.7 WNW 11 13 1018.0 - 0.0 - - - - - - -
08/12:00pm 23.3 NW 10 11 1018.0 - 0.0 - - - - - - -
08/11:30am 22.7 WNW 10 11 1018.2 - 0.0 - - - - - - -
08/11:00am 22.7 WNW 9 9 1018.3 - 0.0 - - - - - - -
08/10:30am 21.5 W 8 9 1018.5 - 0.0 - - - - - - -
08/10:00am 21.8 NW 5 6 1018.4 - 0.0 - - - - - - -
08/09:30am 21.0 NW 5 6 1018.4 - 0.0 - - - - - - -
08/09:00am 20.5 NNW 5 6 1018.3 - 0.0 - - - - - - -
08/08:30am 20.2 NNW 7 8 1018.2 - 0.0 - - - - - - -
08/08:00am 20.2 NNW 7 7 1018.1 - 0.0 - - - - - - -
08/07:30am 20.0 NW 7 8 1018.0 - 0.0 - - - - - - -
08/07:00am 19.9 N 8 9 1017.8 - 0.0 - - - - - - -
08/06:30am 20.1 N 7 8 1017.5 - 0.0 - - - - - - -
08/06:00am 20.0 N 7 9 1017.3 - 0.0 - - - - - - -
08/05:30am 19.9 N 7 9 1017.2 - 0.0 - - - - - - -
08/05:00am 20.0 NNW 7 9 1017.2 - 0.0 - - - - - - -
08/04:30am 20.0 N 6 8 1017.2 - 0.0 - - - - - - -
08/04:00am 19.8 N 6 7 1017.3 - 0.0 - - - - - - -
08/03:30am 20.0 NNW 5 7 1017.4 - 0.0 - - - - - - -
08/03:00am 20.0 NNW 6 7 1017.5 - 0.0 - - - - - - -
08/02:30am 19.9 NNW 5 7 1017.8 - 0.0 - - - - - - -
08/02:00am 20.0 NW 6 8 1017.9 - 0.0 - - - - - - -
08/01:30am 19.8 N 8 10 1017.7 - 0.0 - - - - - - -
08/01:00am 20.1 NNE 9 10 1017.6 - 0.0 - - - - - - -
08/12:30am 20.0 N 7 8 1018.0 - 0.0 - - - - - - -
08/12:00am 20.3 N 6 7 1018.1 - 0.0 - - - - - - -
 
Date/Time
EDT
Temp

°C
Wind Pressure Rain
since 9am
mm
Weather Cloud Vis
km
Sea
Height
m
Swell
Dir
 
Speed
knots
Gust
knots
hPa Trend Height
m
Period
s
Dir
07/11:30pm 20.2 N 6 7 1018.1 - 0.0 - - - - - - -
07/11:00pm 20.3 NNW 6 7 1018.2 - 0.0 - - - - - - -
07/10:30pm 20.2 NNW 5 6 1018.0 - 0.0 - - - - - - -
07/10:00pm 20.5 NNW 5 7 1018.0 - 0.0 - - - - - - -
07/09:30pm 20.3 NNW 5 6 1017.8 - 0.0 - - - - - - -
07/09:00pm 20.4 NW 6 7 1017.5 - 0.0 - - - - - - -
07/08:30pm 20.7 NW 6 7 1017.3 - 0.0 - - - - - - -
07/08:00pm 21.1 NW 6 7 1017.1 - 0.0 - - - - - - -
07/07:30pm 21.2 NNW 7 8 1016.7 - 0.0 - - - - - - -
07/07:00pm 21.5 NNW 6 7 1016.6 - 0.0 - - - - - - -
07/06:30pm 22.1 NNW 7 8 1016.5 - 0.0 - - - - - - -
07/06:00pm 22.3 N 7 9 1016.5 - 0.0 - - - - - - -
07/05:30pm 22.6 NNW 8 9 1016.5 - 0.0 - - - - - - -
07/05:00pm 22.6 NNW 9 11 1016.7 - 0.0 - - - - - - -
07/04:30pm 23.0 N 9 10 1016.8 - 0.0 - - - - - - -
07/04:00pm 23.1 N 9 10 1016.8 - 0.0 - - - - - - -
07/03:30pm 22.9 N 9 11 1017.2 - 0.0 - - - - - - -
07/03:00pm 22.6 N 11 13 1017.3 - 0.0 - - - - - - -
07/02:30pm 21.7 N 12 13 1017.2 - 0.0 - - - - - - -
07/02:00pm 21.3 NNE 13 15 1017.1 - 0.0 - - - - - - -
07/01:30pm 21.5 NNE 12 14 1017.4 - 0.0 - - - - - - -
07/01:00pm 21.1 NNE 12 13 1017.6 - 0.0 - - - - - - -
07/12:30pm 21.7 NNE 11 11 1017.9 - 0.0 - - - - - - -
07/12:00pm 21.2 NNE 11 12 1018.1 - 0.0 - - - - - - -
07/11:30am 21.6 NE 11 12 1018.0 - 0.0 - - - - - - -
07/11:00am 21.5 NE 12 13 1018.1 - 0.0 - - - - - - -
07/10:30am 21.1 NE 13 14 1018.1 - 0.0 - - - - - - -
07/10:00am 20.9 NE 10 11 1018.4 - 0.0 - - - - - - -
07/09:30am 21.0 ENE 7 9 1018.5 - 0.0 - - - - - - -
07/09:00am 20.4 SE 4 6 1018.6 - 0.0 - - - - - - -
07/08:30am 19.5 SE 5 6 1018.4 - 0.0 - - - - - - -
07/08:00am 19.0 SE 5 7 1018.0 - 0.0 - - - - - - -
07/07:30am 18.7 SE 6 7 1017.9 - 0.0 - - - - - - -
07/07:00am 18.4 ESE 6 9 1017.7 - 0.0 - - - - - - -
07/06:30am 18.3 ESE 7 9 1017.3 - 0.0 - - - - - - -
07/06:00am 18.0 ESE 7 9 1017.3 - 0.0 - - - - - - -
07/05:30am 17.9 ESE 7 8 1017.0 - 0.0 - - - - - - -
07/05:00am 17.8 ESE 6 8 1017.0 - 0.0 - - - - - - -
07/04:30am 18.3 E 5 7 1017.1 - 0.0 - - - - - - -
07/04:00am 18.8 E 6 7 1017.3 - 0.0 - - - - - - -
07/03:30am 19.2 E 5 9 1017.5 - 0.0 - - - - - - -
07/03:00am 19.8 NE 10 12 1017.6 - 0.0 - - - - - - -
07/02:30am 19.8 NE 13 14 1017.4 - 0.0 - - - - - - -
07/02:00am 19.8 NE 12 13 1017.5 - 0.0 - - - - - - -
07/01:30am 20.0 NE 12 14 1017.9 - 0.0 - - - - - - -
07/01:00am 20.1 NE 13 14 1018.1 - 0.0 - - - - - - -
07/12:30am 20.2 NE 14 15 1018.2 - 0.0 - - - - - - -
07/12:00am 19.7 E 9 14 1018.3 - 0.0 - - - - - - -
 
Date/Time
EDT
Temp

°C
Wind Pressure Rain
since 9am
mm
Weather Cloud Vis
km
Sea
Height
m
Swell
Dir
 
Speed
knots
Gust
knots
hPa Trend Height
m
Period
s
Dir
06/11:30pm 19.2 E 9 10 1018.4 - 0.0 - - - - - - -
06/11:00pm 19.5 E 7 8 1018.6 - 0.0 - - - - - - -
06/10:30pm 19.2 E 5 7 1018.7 - 0.0 - - - - - - -
06/10:00pm 19.8 E 7 9 1018.6 - 0.0 - - - - - - -
06/09:30pm 20.5 NE 12 14 1018.3 - 0.0 - - - - - - -
06/09:00pm 20.7 NE 13 15 1018.2 - 0.0 - - - - - - -
06/08:30pm 20.6 NE 13 14 1018.0 - 0.0 - - - - - - -
06/08:00pm 20.8 NE 12 14 1017.8 - 0.0 - - - - - - -
06/07:30pm 21.0 NE 10 11 1017.8 - 0.0 - - - - - - -
06/07:00pm 21.2 NE 11 13 1017.7 - 0.0 - - - - - - -
06/06:30pm 22.0 NNE 9 11 1017.8 - 0.0 - - - - - - -
06/06:00pm 21.8 NNE 10 11 1017.8 - 0.0 - - - - - - -
06/05:30pm 21.7 NNE 10 12 1017.8 - 0.0 - - - - - - -
06/05:00pm 22.0 NNE 11 12 1017.9 - 0.0 - - - - - - -
06/04:30pm 22.0 NE 11 13 1018.2 - 0.0 - - - - - - -
06/04:00pm 22.6 NE 13 15 1018.4 - 0.0 - - - - - - -
06/03:30pm 22.3 NE 14 15 1018.8 - 0.0 - - - - - - -
06/03:00pm 22.1 NE 13 15 1019.0 - 0.0 - - - - - - -
06/02:30pm 21.8 NE 14 16 1019.4 - 0.0 - - - - - - -
06/02:00pm 22.2 NE 14 15 1019.5 - 0.0 - - - - - - -
06/01:30pm 21.7 NE 15 17 1019.8 - 0.0 - - - - - - -
06/01:00pm 21.8 NE 13 15 1020.1 - 0.0 - - - - - - -
06/12:30pm 21.3 NE 13 15 1020.4 - 0.0 - - - - - - -
06/12:00pm 20.9 NE 13 15 1020.7 - 0.0 - - - - - - -
06/11:30am 20.4 NE 11 12 1021.0 - 0.0 - - - - - - -
06/11:00am 20.1 ENE 13 15 1021.2 - 0.0 - - - - - - -
06/10:30am 20.2 ENE 8 12 1021.2 - 0.0 - - - - - - -
06/10:00am 20.2 E 6 8 1021.2 - 0.0 - - - - - - -
06/09:30am 19.8 E 10 11 1021.2 - 0.0 - - - - - - -
06/09:00am 19.5 E 9 11 1021.1 - 0.0 - - - - - - -
06/08:30am 19.0 E 10 12 1020.8 - 0.0 - - - - - - -
06/08:00am 18.2 E 9 12 1020.8 - 0.0 - - - - - - -
06/07:30am 17.7 ESE 8 11 1020.7 - 0.0 - - - - - - -
06/07:00am 17.1 ESE 8 11 1020.5 - 0.0 - - - - - - -
06/06:30am 18.0 E 14 16 1020.4 - 0.0 - - - - - - -
06/06:00am 18.0 ENE 13 16 1020.2 - 0.0 - - - - - - -
06/05:30am 18.5 E 13 15 1020.2 - 0.0 - - - - - - -
06/05:00am 18.7 E 10 13 1020.3 - 0.0 - - - - - - -
06/04:30am 18.7 E 7 9 1020.5 - 0.0 - - - - - - -
06/04:00am 18.4 ESE 5 8 1020.7 - 0.0 - - - - - - -
06/03:30am 18.4 ESE 4 6 1020.9 - 0.0 - - - - - - -
06/03:00am 19.2 E 10 13 1021.0 - 0.0 - - - - - - -
06/02:30am 19.2 E 10 13 1021.3 - 0.0 - - - - - - -
06/02:00am 19.3 E 10 12 1021.6 - 0.0 - - - - - - -
06/01:30am 19.8 E 11 14 1021.9 - 0.0 - - - - - - -
06/01:00am 19.8 E 11 13 1022.2 - 0.0 - - - - - - -
06/12:30am 20.0 ENE 12 16 1022.3 - 0.0 - - - - - - -
06/12:00am 20.2 ENE 16 18 1022.4 - 0.0 - - - - - - -
 
Date/Time
EDT
Temp

°C
Wind Pressure Rain
since 9am
mm
Weather Cloud Vis
km
Sea
Height
m
Swell
Dir
 
Speed
knots
Gust
knots
hPa Trend Height
m
Period
s
Dir
05/11:30pm 20.2 ENE 13 16 1022.5 - 0.0 - - - - - - -
05/11:00pm 20.0 ENE 9 11 1022.8 - 0.0 - - - - - - -
05/10:30pm 20.3 NE 8 9 1022.8 - 0.0 - - - - - - -
05/10:00pm 20.1 NE 6 9 1022.8 - 0.0 - - - - - - -
05/09:30pm 20.0 NNE 6 8 1022.6 - 0.0 - - - - - - -
05/09:00pm 20.3 NNE 7 7 1022.2 - 0.0 - - - - - - -
05/08:30pm 20.5 N 6 7 1021.9 - 0.0 - - - - - - -
05/08:00pm 20.3 NNW 5 6 1021.7 - 0.0 - - - - - - -
05/07:30pm 20.8 NNW 5 7 1021.4 - 0.0 - - - - - - -
05/07:00pm 21.2 NNW 7 8 1021.1 - 0.0 - - - - - - -
05/06:30pm 21.6 NNW 7 8 1021.0 - 0.0 - - - - - - -
05/06:00pm 21.6 NNW 7 9 1021.2 - 0.0 - - - - - - -
05/05:30pm 21.9 NNW 9 10 1021.1 - 0.0 - - - - - - -
05/05:00pm 22.1 NNW 9 10 1021.3 - 0.0 - - - - - - -
05/04:30pm 22.4 NNW 9 10 1021.5 - 0.0 - - - - - - -
05/04:00pm 22.6 NNW 9 11 1021.6 - 0.0 - - - - - - -
05/03:30pm 22.5 NNW 9 11 1021.8 - 0.0 - - - - - - -
05/03:00pm 22.3 NNW 9 11 1022.2 - 0.0 - - - - - - -
05/02:30pm 22.6 N 9 11 1022.4 - 0.0 - - - - - - -
05/02:00pm 22.2 N 10 11 1022.7 - 0.0 - - - - - - -
05/01:30pm 21.3 N 9 11 1022.9 - 0.0 - - - - - - -

Other Formats:

Comma delimited format used in spreadsheet applications
http://www.bom.gov.au/fwo/IDT60701/IDT60701.95964.axf

JavaScript Object Notation format (JSON) in row-major order
http://www.bom.gov.au/fwo/IDT60701/IDT60701.95964.json